Time;durP1;ratioP1;P1;durP2;ratioP2;P2;SDS_P1;SDS_P2;PMS_P1;PMS_P2;Temp;Humidity;BMP_temperature;BMP_pressure;BME280_temperature;BME280_humidity;BME280_pressure;Samples;Min_cycle;Max_cycle;Signal;HPM_P1;HPM_P2
2022/12/25 00:00:34;;;;;;;0.60;0.60;;;;;;;-2.00;85.22;100485.50;5064741;28;20025;-69
2022/12/25 00:03:00;;;;;;;0.50;0.50;;;;;;;-1.81;84.23;100493.97;5064595;28;20055;-68
2022/12/25 00:05:25;;;;;;;0.55;0.55;;;;;;;-1.95;84.38;100489.94;5064473;28;20033;-67
2022/12/25 00:07:51;;;;;;;0.60;0.60;;;;;;;-1.95;84.62;100495.03;5064635;28;20056;-66
2022/12/25 00:10:16;;;;;;;0.60;0.60;;;;;;;-2.08;84.94;100491.94;5064321;28;20051;-67
2022/12/25 00:12:42;;;;;;;0.50;0.50;;;;;;;-2.15;85.08;100475.53;5063322;28;20036;-67
2022/12/25 00:15:08;;;;;;;0.50;0.50;;;;;;;-2.13;85.01;100490.84;5064398;28;20036;-67
2022/12/25 00:17:33;;;;;;;0.50;0.50;;;;;;;-2.18;85.76;100492.31;5064648;28;20365;-67
2022/12/25 00:19:59;;;;;;;0.50;0.50;;;;;;;-2.13;85.41;100485.78;5064244;28;20104;-67
2022/12/25 00:22:24;;;;;;;0.50;0.50;;;;;;;-2.12;85.54;100487.50;5064539;28;20021;-66
2022/12/25 00:24:50;;;;;;;0.60;0.60;;;;;;;-2.05;84.87;100491.19;5066033;28;20069;-66
2022/12/25 00:27:15;;;;;;;0.60;0.60;;;;;;;-2.02;84.67;100479.50;5068491;28;20021;-65
2022/12/25 00:29:41;;;;;;;0.50;0.50;;;;;;;-2.05;84.50;100489.53;5067053;28;20465;-65
2022/12/25 00:32:06;;;;;;;0.50;0.50;;;;;;;-2.05;84.60;100497.16;5068601;28;20021;-65
2022/12/25 00:34:32;;;;;;;0.65;0.65;;;;;;;-2.12;84.88;100487.50;5068198;28;20017;-66
2022/12/25 00:36:57;;;;;;;0.60;0.60;;;;;;;-2.08;84.88;100483.44;5068549;28;20032;-66
2022/12/25 00:39:23;;;;;;;0.60;0.60;;;;;;;-2.12;84.79;100465.47;5068318;28;20088;-66
2022/12/25 00:44:32;;;;;;;0.52;0.52;;;;;;;-2.02;84.12;100482.03;5067844;28;20027;-68
2022/12/25 00:46:58;;;;;;;0.60;0.60;;;;;;;-2.07;84.51;100483.50;5068247;28;20453;-68
2022/12/25 00:49:23;;;;;;;0.60;0.60;;;;;;;-2.05;84.50;100464.09;5067988;28;20053;-67
2022/12/25 00:51:50;;;;;;;0.60;0.60;;;;;;;-2.10;84.85;100485.91;5068109;28;20047;-67
2022/12/25 00:54:15;;;;;;;4.78;2.30;;;;;;;-1.87;84.13;100489.47;5068006;28;20028;-67
2022/12/25 00:56:41;;;;;;;0.60;0.60;;;;;;;-1.96;84.65;100490.72;5068138;28;20029;-67
2022/12/25 00:59:06;;;;;;;0.70;0.70;;;;;;;-1.92;84.96;100497.72;5068026;28;20024;-66
2022/12/25 01:01:32;;;;;;;0.60;0.60;;;;;;;-1.85;84.49;100481.88;5066745;28;20037;-67
2022/12/25 01:03:58;;;;;;;0.52;0.52;;;;;;;-1.83;84.37;100487.94;5067998;28;20037;-67
2022/12/25 01:06:24;;;;;;;0.60;0.60;;;;;;;-1.91;84.54;100468.91;5068355;28;20035;-67
2022/12/25 01:11:34;;;;;;;0.60;0.60;;;;;;;-1.68;83.80;100476.66;5067793;28;20032;-66
2022/12/25 01:13:59;;;;;;;0.50;0.50;;;;;;;-1.77;84.21;100483.09;5067658;28;20028;-66
2022/12/25 01:16:25;;;;;;;0.52;0.52;;;;;;;-1.72;84.60;100479.88;5067796;28;20021;-66
2022/12/25 01:18:51;;;;;;;0.55;0.55;;;;;;;-1.77;84.44;100482.22;5067431;28;20025;-66
2022/12/25 01:21:19;;;;;;;0.50;0.50;;;;;;;-1.81;84.67;100476.16;5066192;28;20028;-67
2022/12/25 01:23:45;;;;;;;0.60;0.60;;;;;;;-1.68;84.25;100480.09;5066779;28;20040;-69
2022/12/25 01:26:12;;;;;;;0.60;0.60;;;;;;;-1.76;84.94;100489.91;5067568;28;20028;-67
2022/12/25 01:28:38;;;;;;;0.60;0.60;;;;;;;-1.67;84.70;100493.66;5067412;28;20033;-67
2022/12/25 01:31:07;;;;;;;0.60;0.60;;;;;;;-1.59;84.78;100488.91;5067020;28;20032;-66
2022/12/25 01:33:32;;;;;;;0.60;0.60;;;;;;;-1.60;84.69;100489.72;5067053;28;20029;-67
2022/12/25 01:35:58;;;;;;;0.60;0.60;;;;;;;-1.73;85.06;100484.09;5065851;28;20028;-67
2022/12/25 01:38:24;;;;;;;0.60;0.60;;;;;;;-1.72;85.34;100483.28;5067084;28;20025;-67
2022/12/25 01:40:49;;;;;;;0.60;0.60;;;;;;;-1.81;85.91;100483.78;5067275;28;20025;-67
2022/12/25 01:43:25;;;;;;;0.60;0.60;;;;;;;-1.68;86.07;100497.03;5067150;28;20029;-67
2022/12/25 01:45:51;;;;;;;0.50;0.50;;;;;;;-1.58;85.39;100488.13;5067149;28;20059;-66
2022/12/25 01:48:43;;;;;;;0.60;0.60;;;;;;;-1.65;85.61;100494.63;5067081;28;20041;-67
2022/12/25 01:51:47;;;;;;;0.70;0.70;;;;;;;-1.47;85.31;100498.75;5065627;28;20094;-66
2022/12/25 01:54:32;;;;;;;0.63;0.63;;;;;;;-1.52;85.22;100501.97;5066502;28;20040;-66
2022/12/25 01:57:01;;;;;;;0.60;0.60;;;;;;;-1.46;85.04;100503.03;5066941;28;20084;-67
2022/12/25 01:59:28;;;;;;;0.57;0.57;;;;;;;-1.51;85.48;100516.44;5066976;28;20040;-66
2022/12/25 02:01:53;;;;;;;0.60;0.60;;;;;;;-1.57;85.65;100512.75;5066780;28;20469;-67
2022/12/25 02:04:39;;;;;;;0.50;0.50;;;;;;;-1.53;85.49;100519.72;5066593;28;20056;-67
2022/12/25 02:07:18;;;;;;;0.50;0.50;;;;;;;-1.43;85.25;100518.44;5065672;28;20017;-67
2022/12/25 02:09:44;;;;;;;0.50;0.50;;;;;;;-1.35;84.58;100512.00;5066423;28;20025;-67
2022/12/25 02:12:16;;;;;;;0.60;0.60;;;;;;;-1.43;84.90;100516.78;5066674;28;20071;-68
2022/12/25 02:14:42;;;;;;;0.90;0.90;;;;;;;-1.54;85.55;100506.13;5066579;28;20385;-68
2022/12/25 02:17:13;;;;;;;0.50;0.50;;;;;;;-1.68;85.88;100485.19;5066486;28;20032;-68
2022/12/25 02:19:58;;;;;;;;;;;;;;;-1.52;86.09;100514.69;5065459;28;20017;-67
2022/12/25 02:22:32;;;;;;;0.60;0.60;;;;;;;-1.50;86.11;100509.66;5065185;28;20003;-67
2022/12/25 02:25:09;;;;;;;0.60;0.60;;;;;;;-1.50;86.12;100502.91;5066320;28;20021;-68
2022/12/25 02:28:16;;;;;;;0.60;0.60;;;;;;;-1.40;86.30;100503.28;5066490;28;20029;-67
2022/12/25 02:30:49;;;;;;;0.50;0.50;;;;;;;-1.36;85.96;100510.28;5043710;28;20037;-66
2022/12/25 02:36:17;;;;;;;0.60;0.60;;;;;;;-1.41;86.01;100497.34;5043882;28;20087;-67
2022/12/25 02:41:36;;;;;;;0.60;0.60;;;;;;;-1.42;86.57;100502.38;5043964;28;20036;-68
2022/12/25 03:06:42;;;;;;;0.50;0.50;;;;;;;-1.20;86.34;100498.16;5065595;28;20031;-67
2022/12/25 03:12:34;;;;;;;0.60;0.60;;;;;;;-1.14;86.54;100503.50;5065651;28;20089;-67
2022/12/25 03:17:44;;;;;;;0.57;0.57;;;;;;;-1.05;86.17;100500.44;5065528;28;20027;-67
2022/12/25 03:28:24;;;;;;;0.60;0.60;;;;;;;-0.70;83.77;100485.69;5065346;28;20055;-67
2022/12/25 03:31:10;;;;;;;0.60;0.60;;;;;;;-0.71;83.61;100485.63;5065182;28;20080;-66
2022/12/25 03:37:10;;;;;;;0.70;0.70;;;;;;;-0.80;84.39;100484.47;5065296;28;20035;-66
2022/12/25 03:43:22;;;;;;;0.50;0.50;;;;;;;-0.79;84.38;100482.78;5065418;28;20029;-67
2022/12/25 04:37:52;;;;;;;0.60;0.60;;;;;;;-0.48;85.30;100432.09;5068323;28;20129;-67
2022/12/25 04:40:17;;;;;;;2.25;2.15;;;;;;;-0.47;85.87;100426.19;5068450;28;20479;-67
2022/12/25 04:42:43;;;;;;;0.52;0.52;;;;;;;-0.44;85.70;100434.81;5068341;28;20054;-66
2022/12/25 04:45:09;;;;;;;0.50;0.50;;;;;;;-0.34;85.78;100425.81;5068138;28;20111;-66
2022/12/25 04:47:34;;;;;;;0.60;0.60;;;;;;;-0.32;85.13;100434.38;5067960;28;20600;-67
2022/12/25 04:50:00;;;;;;;0.60;0.60;;;;;;;-0.47;86.01;100431.28;5067764;28;20031;-66
2022/12/25 04:52:25;;;;;;;0.50;0.50;;;;;;;-0.27;85.49;100432.00;5068091;28;20021;-66
2022/12/25 04:54:51;;;;;;;0.50;0.50;;;;;;;-0.52;85.89;100401.38;5067854;28;20051;-66
2022/12/25 04:57:16;;;;;;;0.50;0.50;;;;;;;-0.66;86.81;100407.66;5068074;28;20029;-67
2022/12/25 04:59:42;;;;;;;0.55;0.55;;;;;;;-0.63;87.05;100403.53;5067803;28;20026;-67
2022/12/25 05:02:08;;;;;;;0.50;0.50;;;;;;;-0.62;87.13;100401.84;5067749;28;20156;-66
2022/12/25 05:04:33;;;;;;;0.60;0.60;;;;;;;-0.51;87.06;100403.09;5067726;28;20025;-65
2022/12/25 05:06:59;;;;;;;0.50;0.50;;;;;;;-0.42;86.43;100404.25;5067829;28;20024;-66
2022/12/25 05:09:25;;;;;;;0.60;0.60;;;;;;;-0.31;85.74;100391.91;5066071;28;20044;-65
2022/12/25 05:11:50;;;;;;;0.50;0.50;;;;;;;-0.42;86.19;100396.59;5066925;28;20029;-66
2022/12/25 05:14:16;;;;;;;0.50;0.50;;;;;;;-0.57;87.49;100392.69;5067611;28;20078;-66
2022/12/25 05:16:41;;;;;;;0.50;0.50;;;;;;;-0.63;88.11;100395.88;5067732;28;20066;-67
2022/12/25 05:19:06;;;;;;;0.60;0.60;;;;;;;-0.56;88.31;100401.22;5067514;28;20021;-67
2022/12/25 05:21:32;;;;;;;0.60;0.60;;;;;;;-0.63;88.38;100393.34;5067474;28;20047;-67
2022/12/25 05:23:57;;;;;;;0.50;0.50;;;;;;;-0.46;88.37;100410.09;5067270;28;20013;-66
2022/12/25 05:26:24;;;;;;;0.57;0.57;;;;;;;-0.45;88.25;100401.59;5067558;28;20031;-67
2022/12/25 05:28:50;;;;;;;0.50;0.50;;;;;;;-0.24;87.67;100406.63;5067271;28;20032;-67
2022/12/25 05:31:16;;;;;;;0.50;0.50;;;;;;;-0.35;87.83;100403.66;5067232;28;20025;-68
2022/12/25 05:33:42;;;;;;;0.60;0.60;;;;;;;-0.40;87.76;100387.34;5067187;28;20043;-68
2022/12/25 05:36:09;;;;;;;0.50;0.50;;;;;;;-0.43;88.19;100379.59;5067239;28;20568;-67
2022/12/25 05:38:35;;;;;;;0.60;0.60;;;;;;;-0.14;87.24;100392.47;5065852;28;20085;-67
2022/12/25 05:41:01;;;;;;;0.50;0.50;;;;;;;-0.25;87.53;100389.56;5067011;28;20021;-67
2022/12/25 05:43:27;;;;;;;0.60;0.60;;;;;;;-0.13;87.05;100391.69;5067066;28;20079;-68
2022/12/25 05:45:53;;;;;;;0.50;0.50;;;;;;;-0.16;87.69;100378.81;5067019;28;20036;-67
2022/12/25 05:48:19;;;;;;;0.50;0.50;;;;;;;0.04;87.10;100386.28;5066893;28;20045;-67
2022/12/25 05:50:44;;;;;;;0.52;0.52;;;;;;;-0.18;87.47;100378.78;5066723;28;20020;-67
2022/12/25 05:53:11;;;;;;;0.50;0.50;;;;;;;-0.04;87.20;100388.56;5066755;28;20059;-67
2022/12/25 05:55:39;;;;;;;0.50;0.50;;;;;;;-0.16;88.06;100384.78;5066914;28;20089;-67
2022/12/25 05:58:06;;;;;;;0.57;0.57;;;;;;;-0.14;88.41;100390.81;5066845;28;20086;-68
2022/12/25 06:00:32;;;;;;;0.50;0.50;;;;;;;-0.12;88.60;100380.66;5066875;28;20029;-68
2022/12/25 06:02:58;;;;;;;0.60;0.60;;;;;;;-0.05;88.40;100382.59;5066767;28;20021;-67
2022/12/25 06:05:24;;;;;;;0.50;0.50;;;;;;;-0.06;87.80;100370.66;5066648;28;20052;-67
2022/12/25 06:07:49;;;;;;;0.50;0.50;;;;;;;-0.01;87.96;100371.69;5066612;28;20134;-65
2022/12/25 06:10:15;;;;;;;0.45;0.45;;;;;;;-0.18;88.74;100354.94;5066556;28;20042;-65
2022/12/25 06:12:40;;;;;;;0.50;0.50;;;;;;;-0.18;88.79;100360.91;5066584;28;20036;-66
2022/12/25 06:15:06;;;;;;;0.50;0.50;;;;;;;-0.17;89.00;100364.31;5065015;28;20024;-64
2022/12/25 06:17:32;;;;;;;0.50;0.50;;;;;;;-0.22;89.50;100374.34;5066427;28;20021;-65
2022/12/25 06:19:57;;;;;;;0.60;0.60;;;;;;;-0.15;89.33;100381.44;5066407;28;20049;-66
2022/12/25 06:22:26;;;;;;;0.50;0.50;;;;;;;-0.21;89.72;100378.66;5065532;28;20017;-65
2022/12/25 06:24:52;;;;;;;0.50;0.50;;;;;;;0.21;88.81;100374.09;5066251;28;20102;-64
2022/12/25 06:27:17;;;;;;;0.60;0.60;;;;;;;0.05;89.31;100382.94;5066206;28;20029;-64
2022/12/25 06:29:43;;;;;;;0.50;0.50;;;;;;;0.10;89.32;100386.50;5066350;28;20033;-64
2022/12/25 06:32:08;;;;;;;0.50;0.50;;;;;;;0.10;89.04;100389.91;5066190;28;20025;-64
2022/12/25 06:34:33;;;;;;;0.40;0.40;;;;;;;0.06;89.41;100394.88;5066069;28;20021;-65
2022/12/25 06:36:59;;;;;;;1.80;1.70;;;;;;;0.15;90.44;100386.66;5066095;28;20029;-64
2022/12/25 06:39:24;;;;;;;0.50;0.50;;;;;;;0.20;89.53;100395.34;5064633;28;20535;-64
2022/12/25 06:41:49;;;;;;;0.50;0.50;;;;;;;-0.07;91.04;100394.44;5065956;28;20077;-64
2022/12/25 06:44:15;;;;;;;0.50;0.50;;;;;;;0.05;90.60;100398.25;5066007;28;20017;-65
2022/12/25 06:46:40;;;;;;;0.50;0.50;;;;;;;0.18;90.29;100404.63;5065793;28;20025;-65
2022/12/25 06:49:06;;;;;;;0.50;0.50;;;;;;;0.07;90.44;100399.16;5065723;28;20064;-66
2022/12/25 06:51:31;;;;;;;0.50;0.50;;;;;;;-0.01;91.17;100392.13;5065518;28;20024;-64
2022/12/25 06:53:58;;;;;;;0.47;0.47;;;;;;;0.26;90.23;100389.59;5065487;28;20027;-64
2022/12/25 06:56:26;;;;;;;0.50;0.50;;;;;;;0.24;90.61;100394.63;5065961;28;20040;-65
2022/12/25 06:58:57;;;;;;;0.50;0.50;;;;;;;0.31;90.12;100382.94;5065549;28;20037;-64
2022/12/25 07:01:24;;;;;;;0.63;0.63;;;;;;;0.28;90.19;100367.50;5065615;28;20021;-64
2022/12/25 07:03:54;;;;;;;0.50;0.50;;;;;;;0.30;90.89;100369.31;5065600;28;20045;-65
2022/12/25 07:06:20;;;;;;;0.50;0.50;;;;;;;0.38;90.46;100382.34;5065656;28;20025;-65
2022/12/25 07:08:45;;;;;;;0.57;0.57;;;;;;;0.16;91.60;100376.47;5065335;28;20020;-63
2022/12/25 07:11:11;;;;;;;0.50;0.50;;;;;;;0.40;91.41;100388.34;5065340;28;20100;-65
2022/12/25 07:13:36;;;;;;;0.77;0.77;;;;;;;0.40;90.88;100385.78;5064245;28;20025;-65
2022/12/25 07:16:03;;;;;;;0.50;0.50;;;;;;;0.31;91.79;100388.91;5065388;28;20307;-65
2022/12/25 07:18:30;;;;;;;0.50;0.50;;;;;;;0.28;92.28;100386.25;5065531;28;20116;-64
2022/12/25 07:20:58;;;;;;;0.50;0.50;;;;;;;0.20;92.19;100368.13;5065081;28;20032;-65
2022/12/25 07:23:24;;;;;;;0.50;0.50;;;;;;;0.43;91.72;100385.03;5065181;28;20051;-64
2022/12/25 07:25:57;;;;;;;0.50;0.50;;;;;;;0.38;91.34;100384.88;5065180;28;20081;-64
2022/12/25 07:28:24;;;;;;;0.40;0.40;;;;;;;0.34;91.82;100390.69;5065084;28;20078;-64
2022/12/25 07:30:49;;;;;;;0.60;0.60;;;;;;;0.42;91.39;100394.38;5065024;28;20036;-63
2022/12/25 07:33:15;;;;;;;0.50;0.50;;;;;;;0.53;91.63;100369.16;5065058;28;20021;-65
2022/12/25 07:35:40;;;;;;;1.13;1.13;;;;;;;0.65;91.05;100372.94;5064865;28;20045;-64
2022/12/25 07:38:06;;;;;;;0.50;0.50;;;;;;;0.58;91.17;100374.44;5065059;28;20027;-64
2022/12/25 07:40:32;;;;;;;0.50;0.50;;;;;;;0.58;91.80;100397.41;5065057;28;20204;-64
2022/12/25 07:42:57;;;;;;;0.50;0.50;;;;;;;0.64;91.37;100389.09;5064992;28;20080;-64
2022/12/25 07:45:23;;;;;;;0.50;0.50;;;;;;;0.56;91.71;100391.41;5065062;28;20027;-66
2022/12/25 07:47:48;;;;;;;0.50;0.50;;;;;;;0.55;91.24;100393.09;5064769;28;20051;-67
2022/12/25 07:50:13;;;;;;;0.50;0.50;;;;;;;0.57;91.78;100391.47;5064968;28;20059;-67
2022/12/25 07:52:39;;;;;;;0.50;0.50;;;;;;;0.57;91.59;100388.91;5064967;28;20028;-67
2022/12/25 07:55:05;;;;;;;0.50;0.50;;;;;;;0.47;91.89;100397.94;5064898;28;20029;-67
2022/12/25 07:57:30;;;;;;;0.50;0.50;;;;;;;0.33;92.63;100383.84;5064944;28;20037;-67
2022/12/25 07:59:56;;;;;;;0.50;0.50;;;;;;;0.46;92.80;100385.13;5064840;28;20028;-66
2022/12/25 08:02:27;;;;;;;0.50;0.50;;;;;;;0.47;93.07;100386.84;5063553;28;20103;-67
2022/12/25 08:04:55;;;;;;;0.68;0.68;;;;;;;0.48;93.51;100393.69;5064945;28;20036;-66
2022/12/25 08:07:21;;;;;;;0.50;0.50;;;;;;;0.32;93.85;100393.19;5064821;28;20104;-67
2022/12/25 08:09:47;;;;;;;0.50;0.50;;;;;;;0.34;94.42;100391.56;5064626;28;20049;-66
2022/12/25 08:12:12;;;;;;;0.50;0.50;;;;;;;0.47;93.75;100387.72;5064725;28;20025;-65
2022/12/25 08:14:37;;;;;;;5.20;2.55;;;;;;;0.60;93.64;100368.56;5064496;28;20029;-65
2022/12/25 08:17:03;;;;;;;0.50;0.50;;;;;;;0.52;93.61;100379.34;5064881;28;20040;-67
2022/12/25 08:19:29;;;;;;;0.50;0.50;;;;;;;0.48;94.06;100386.91;5064581;28;20033;-67
2022/12/25 08:21:54;;;;;;;0.50;0.50;;;;;;;0.51;94.14;100385.28;5064634;28;20114;-66
2022/12/25 08:24:20;;;;;;;0.50;0.50;;;;;;;0.52;94.16;100385.31;5064569;28;20029;-67
2022/12/25 08:26:46;;;;;;;0.50;0.50;;;;;;;0.46;94.13;100388.53;5064822;28;20507;-66
2022/12/25 08:29:11;;;;;;;0.50;0.50;;;;;;;0.63;93.61;100377.13;5064655;28;20021;-67
2022/12/25 08:31:36;;;;;;;0.50;0.50;;;;;;;0.70;93.53;100372.25;5063315;28;20026;-65
2022/12/25 08:34:03;;;;;;;0.50;0.50;;;;;;;0.66;93.57;100393.44;5064604;28;20054;-66
2022/12/25 08:36:29;;;;;;;0.50;0.50;;;;;;;0.68;93.20;100373.03;5064581;28;20416;-66
2022/12/25 08:38:54;;;;;;;0.50;0.50;;;;;;;0.60;94.70;100378.78;5064370;28;20034;-67
2022/12/25 08:41:20;;;;;;;0.50;0.50;;;;;;;0.78;93.19;100376.75;5064486;28;20054;-65
2022/12/25 08:43:45;;;;;;;0.40;0.40;;;;;;;0.74;93.62;100375.78;5063290;28;20025;-66
2022/12/25 08:46:11;;;;;;;0.57;0.57;;;;;;;0.69;93.96;100367.09;5066331;28;20029;-66
2022/12/25 08:48:37;;;;;;;0.40;0.40;;;;;;;0.83;93.66;100365.84;5068100;28;20049;-67
2022/12/25 08:51:04;;;;;;;0.50;0.50;;;;;;;0.83;93.80;100370.94;5067930;28;20032;-65
2022/12/25 08:53:29;;;;;;;0.60;0.60;;;;;;;0.70;94.14;100366.28;5067977;28;20053;-65
2022/12/25 08:56:05;;;;;;;3.80;2.90;;;;;;;1.03;93.66;100377.50;5067881;28;20396;-65
2022/12/25 08:58:31;;;;;;;0.50;0.50;;;;;;;0.89;93.49;100372.84;5067921;28;20044;-65
2022/12/25 09:00:57;;;;;;;0.45;0.45;;;;;;;1.09;92.26;100370.88;5067912;28;20025;-66
2022/12/25 09:03:23;;;;;;;0.60;0.60;;;;;;;0.87;93.79;100377.03;5067804;28;20024;-66
2022/12/25 09:05:49;;;;;;;0.50;0.50;;;;;;;1.08;93.19;100371.72;5067824;28;20029;-65
2022/12/25 09:08:14;;;;;;;0.50;0.50;;;;;;;0.75;94.09;100385.22;5066456;28;20032;-67
2022/12/25 09:10:40;;;;;;;0.50;0.50;;;;;;;0.76;94.80;100369.03;5067671;28;20036;-66
2022/12/25 09:13:06;;;;;;;0.50;0.50;;;;;;;0.70;95.31;100390.13;5067614;28;20052;-66
2022/12/25 09:15:31;;;;;;;0.50;0.50;;;;;;;0.70;95.95;100382.47;5067463;28;20029;-65
2022/12/25 09:17:56;;;;;;;0.50;0.50;;;;;;;0.80;95.15;100370.00;5067482;28;20063;-66
2022/12/25 09:20:22;;;;;;;0.50;0.50;;;;;;;0.95;94.63;100373.03;5067487;28;20040;-65
2022/12/25 09:22:48;;;;;;;0.45;0.45;;;;;;;0.95;94.32;100375.59;5067573;28;20039;-66
2022/12/25 09:25:13;;;;;;;0.50;0.50;;;;;;;0.99;94.01;100382.53;5067314;28;20445;-66
2022/12/25 09:27:39;;;;;;;0.50;0.50;;;;;;;0.97;94.71;100378.19;5067337;28;20131;-65
2022/12/25 09:30:05;;;;;;;0.95;0.95;;;;;;;0.88;95.00;100381.31;5067595;28;20016;-65
2022/12/25 09:32:31;;;;;;;0.80;0.80;;;;;;;1.09;93.71;100375.13;5065852;28;20060;-65
2022/12/25 09:34:56;;;;;;;0.50;0.50;;;;;;;1.03;94.61;100377.50;5067125;28;20024;-66
2022/12/25 09:37:22;;;;;;;0.50;0.50;;;;;;;1.02;94.55;100376.66;5067239;28;20041;-66
2022/12/25 09:39:47;;;;;;;1.33;1.33;;;;;;;1.10;94.21;100384.53;5066939;28;20688;-68
2022/12/25 09:42:21;;;;;;;0.50;0.50;;;;;;;1.14;93.70;100380.38;5067057;28;20025;-67
2022/12/25 09:44:52;;;;;;;0.50;0.50;;;;;;;1.14;94.02;100391.47;5067053;28;20445;-72
2022/12/25 09:47:23;;;;;;;0.52;0.52;;;;;;;1.01;94.63;100390.25;5066830;28;20436;-72
2022/12/25 09:50:14;;;;;;;0.50;0.50;;;;;;;1.04;95.32;100398.00;5067096;28;20090;-66
2022/12/25 09:52:45;;;;;;;0.70;0.70;;;;;;;1.02;95.17;100384.31;5065661;28;20037;-66
2022/12/25 09:55:17;;;;;;;0.70;0.70;;;;;;;1.13;95.10;100388.88;5066857;28;20056;-65
2022/12/25 09:57:42;;;;;;;0.50;0.50;;;;;;;1.23;94.09;100375.56;5066874;28;20056;-64
2022/12/25 10:00:16;;;;;;;0.50;0.50;;;;;;;1.14;94.90;100380.38;5066975;28;20029;-65
2022/12/25 10:03:03;;;;;;;0.50;0.50;;;;;;;1.01;95.98;100359.56;5066917;28;20021;-65
2022/12/25 10:05:40;;;;;;;0.50;0.50;;;;;;;1.11;95.46;100370.94;5066687;28;20025;-66
2022/12/25 10:08:36;;;;;;;0.50;0.50;;;;;;;1.22;95.08;100384.91;5066704;28;20031;-65
2022/12/25 10:11:23;;;;;;;0.50;0.50;;;;;;;1.14;95.14;100376.13;5066437;28;20025;-66
2022/12/25 10:13:51;;;;;;;0.50;0.50;;;;;;;1.13;95.58;100388.88;5066636;28;20029;-65
2022/12/25 10:16:42;;;;;;;0.50;0.50;;;;;;;1.20;95.36;100388.22;5066513;28;20029;-66
2022/12/25 10:19:43;;;;;;;0.50;0.50;;;;;;;1.16;96.10;100383.84;5066535;28;20047;-65
2022/12/25 10:22:43;;;;;;;0.50;0.50;;;;;;;1.09;96.34;100390.47;5065042;28;20045;-65
2022/12/25 10:25:22;;;;;;;0.50;0.50;;;;;;;1.31;95.89;100380.91;5058800;28;20419;-65
2022/12/25 10:27:55;;;;;;;0.50;0.50;;;;;;;1.18;96.11;100372.00;5066102;28;20040;-64
2022/12/25 10:30:23;;;;;;;0.50;0.50;;;;;;;1.20;95.88;100365.22;5064754;28;20028;-65
2022/12/25 10:32:51;;;;;;;1.25;1.15;;;;;;;1.25;95.95;100367.94;5066123;28;20025;-65
2022/12/25 10:35:19;;;;;;;0.43;0.43;;;;;;;1.38;95.88;100370.00;5065865;28;20036;-63
2022/12/25 10:37:52;;;;;;;0.98;0.95;;;;;;;1.58;94.52;100352.66;5065605;28;20025;-63
2022/12/25 10:40:23;;;;;;;0.50;0.50;;;;;;;1.29;95.54;100356.94;5064626;28;20017;-64
2022/12/25 10:42:56;;;;;;;0.60;0.60;;;;;;;1.41;95.79;100359.84;5065670;28;20021;-63
2022/12/25 10:45:21;;;;;;;0.50;0.50;;;;;;;1.53;95.32;100348.25;5065515;28;20115;-63
2022/12/25 10:47:47;;;;;;;0.50;0.50;;;;;;;1.33;95.69;100348.53;5065632;28;20072;-65
2022/12/25 10:50:24;;;;;;;0.50;0.50;;;;;;;1.28;96.62;100352.66;5065457;28;20052;-66
2022/12/25 10:53:01;;;;;;;0.50;0.50;;;;;;;1.38;97.17;100358.88;5065635;28;20038;-64
2022/12/25 10:55:27;;;;;;;0.50;0.50;;;;;;;1.42;95.90;100353.06;5065462;28;20049;-65
2022/12/25 10:57:53;;;;;;;0.50;0.50;;;;;;;1.50;95.62;100354.16;5065513;28;20422;-64
2022/12/25 11:00:24;;;;;;;0.40;0.40;;;;;;;1.57;95.77;100344.91;5065560;28;20092;-66
2022/12/25 11:02:49;;;;;;;0.50;0.50;;;;;;;1.57;95.57;100343.25;5065402;28;20037;-65
2022/12/25 11:05:30;;;;;;;0.50;0.50;;;;;;;1.50;95.82;100343.03;5065410;28;20029;-64
2022/12/25 11:07:58;;;;;;;0.50;0.50;;;;;;;1.47;96.50;100348.94;5065031;28;20520;-66
2022/12/25 11:10:29;;;;;;;0.50;0.50;;;;;;;1.48;96.49;100331.06;5065317;28;20104;-65
2022/12/25 11:12:54;;;;;;;0.50;0.50;;;;;;;1.60;96.19;100330.53;5065295;28;20025;-65
2022/12/25 11:15:44;;;;;;;0.50;0.50;;;;;;;1.66;95.80;100329.81;5065249;28;20043;-64
2022/12/25 11:18:22;;;;;;;0.50;0.50;;;;;;;1.60;95.95;100329.66;5062185;28;20033;-66
2022/12/25 11:20:49;;;;;;;0.52;0.52;;;;;;;1.51;96.75;100321.72;5065131;28;20021;-66
2022/12/25 11:23:19;;;;;;;0.50;0.50;;;;;;;1.53;97.28;100318.41;5065074;28;20032;-65
2022/12/25 11:25:55;;;;;;;1.33;1.33;;;;;;;1.47;97.70;100319.09;5065308;28;20025;-66
2022/12/25 11:28:21;;;;;;;0.50;0.50;;;;;;;1.67;96.45;100318.78;5064986;28;20060;-66
2022/12/25 11:30:52;;;;;;;0.50;0.50;;;;;;;1.68;96.58;100307.69;5065007;28;20050;-65
2022/12/25 11:33:19;;;;;;;0.63;0.63;;;;;;;1.68;96.60;100311.94;5065140;28;20571;-66
2022/12/25 11:35:54;;;;;;;0.50;0.50;;;;;;;1.63;97.35;100305.84;5063516;28;20120;-65
2022/12/25 11:38:20;;;;;;;0.50;0.50;;;;;;;1.67;96.76;100295.75;5064684;28;20029;-65
2022/12/25 11:40:51;;;;;;;0.50;0.50;;;;;;;1.83;96.75;100296.13;5065089;28;20080;-64
2022/12/25 11:43:30;;;;;;;0.50;0.50;;;;;;;1.98;94.96;100280.31;5065083;28;20048;-67
2022/12/25 11:46:16;;;;;;;0.40;0.40;;;;;;;1.75;96.51;100302.75;5064889;28;20139;-65
2022/12/25 11:48:54;;;;;;;0.50;0.50;;;;;;;1.68;96.59;100291.47;5064716;28;20140;-66
2022/12/25 11:51:24;;;;;;;0.50;0.50;;;;;;;1.81;96.52;100282.41;5064766;28;20040;-65
2022/12/25 11:53:53;;;;;;;0.65;0.65;;;;;;;1.85;96.62;100274.00;5064601;28;20029;-64
2022/12/25 11:56:24;;;;;;;0.47;0.47;;;;;;;2.05;95.87;100268.50;5064899;28;20025;-65
2022/12/25 11:59:08;;;;;;;0.70;0.70;;;;;;;1.90;97.31;100280.09;5064845;28;20025;-64
2022/12/25 12:01:48;;;;;;;0.50;0.50;;;;;;;1.74;96.89;100276.28;5064900;28;20013;-65
2022/12/25 12:04:23;;;;;;;0.40;0.40;;;;;;;1.81;97.17;100277.28;5064730;28;20075;-65
2022/12/25 12:07:12;;;;;;;0.50;0.50;;;;;;;1.77;97.70;100267.81;5064632;28;20493;-65
2022/12/25 12:09:43;;;;;;;0.50;0.50;;;;;;;1.85;97.32;100263.75;5064638;28;20120;-65
2022/12/25 12:12:17;;;;;;;0.60;0.60;;;;;;;1.84;97.53;100282.50;5064745;28;20029;-66
2022/12/25 12:14:59;;;;;;;0.50;0.50;;;;;;;1.71;98.53;100279.63;5064490;28;20244;-65
2022/12/25 12:17:25;;;;;;;0.70;0.70;;;;;;;1.82;98.81;100277.34;5064851;28;20017;-64
2022/12/25 12:19:51;;;;;;;0.50;0.50;;;;;;;1.93;98.27;100279.31;5064557;28;20044;-65
2022/12/25 12:22:25;;;;;;;1.95;1.85;;;;;;;1.82;98.67;100295.25;5068666;28;20052;-66
2022/12/25 12:25:05;;;;;;;0.50;0.50;;;;;;;1.85;99.33;100290.22;5068198;28;20059;-64
2022/12/25 12:27:37;;;;;;;0.50;0.50;;;;;;;1.89;99.60;100286.03;5067082;28;20025;-65
2022/12/25 12:30:05;;;;;;;0.65;0.65;;;;;;;2.01;98.94;100288.06;5068364;28;20025;-66
2022/12/25 12:32:41;;;;;;;0.50;0.50;;;;;;;2.11;98.63;100281.44;5068123;28;20025;-64
2022/12/25 12:35:13;;;;;;;0.50;0.50;;;;;;;2.15;98.02;100282.41;5068314;28;20028;-65
2022/12/25 12:37:40;;;;;;;0.70;0.70;;;;;;;1.98;98.52;100264.94;5068265;28;20031;-66
2022/12/25 12:40:22;;;;;;;6.90;2.78;;;;;;;2.20;98.45;100281.69;5067956;28;20033;-66
2022/12/25 12:42:49;;;;;;;0.70;0.70;;;;;;;2.28;98.07;100275.88;5068377;28;20024;-66
2022/12/25 12:45:36;;;;;;;0.50;0.50;;;;;;;2.22;98.63;100276.59;5068303;28;20025;-66
2022/12/25 12:48:14;;;;;;;0.50;0.50;;;;;;;2.27;98.62;100262.19;5067969;28;20049;-65
2022/12/25 12:50:40;;;;;;;0.50;0.50;;;;;;;2.50;97.78;100266.97;5068022;28;20126;-65
2022/12/25 12:53:27;;;;;;;0.50;0.50;;;;;;;2.49;96.73;100262.69;5067729;28;20028;-66
2022/12/25 12:55:53;;;;;;;0.50;0.50;;;;;;;2.29;97.94;100257.97;5067913;28;20489;-66
2022/12/25 12:58:29;;;;;;;0.50;0.50;;;;;;;2.63;96.66;100250.19;5067692;28;20077;-65
2022/12/25 13:01:07;;;;;;;0.50;0.50;;;;;;;2.44;97.39;100252.34;5067840;28;20036;-66
2022/12/25 13:03:35;;;;;;;0.50;0.50;;;;;;;2.65;96.93;100248.50;5066770;28;20078;-65
2022/12/25 13:06:19;;;;;;;0.52;0.52;;;;;;;2.58;96.83;100255.22;5066606;28;20033;-65
2022/12/25 13:09:18;;;;;;;0.50;0.50;;;;;;;2.65;96.38;100235.69;5066606;28;20029;-64
2022/12/25 13:11:44;;;;;;;0.50;0.50;;;;;;;2.52;96.97;100241.38;5064844;28;20036;-67
2022/12/25 13:14:19;;;;;;;1.08;1.08;;;;;;;2.52;97.43;100238.81;5067773;28;20029;-64
2022/12/25 13:16:47;;;;;;;0.50;0.50;;;;;;;2.43;97.97;100237.78;5067621;28;20040;-67
2022/12/25 13:19:21;;;;;;;0.50;0.50;;;;;;;2.65;96.82;100238.25;5067646;28;20028;-66
2022/12/25 13:22:00;;;;;;;0.50;0.50;;;;;;;2.55;96.95;100226.06;5067726;28;20021;-67
2022/12/25 13:24:31;;;;;;;0.50;0.50;;;;;;;2.77;96.31;100231.66;5067061;28;20092;-65
2022/12/25 13:26:58;;;;;;;0.60;0.60;;;;;;;2.59;97.10;100226.16;5066052;28;20025;-75